Time;durP1;ratioP1;P1;durP2;ratioP2;P2;SDS_P1;SDS_P2;PMS_P1;PMS_P2;Temp;Humidity;BMP_temperature;BMP_pressure;BME280_temperature;BME280_humidity;BME280_pressure;Samples;Min_cycle;Max_cycle;Signal;HPM_P1;HPM_P2
2022/01/02 00:00:44;;;;;;;8.13;2.17;;;;;;;;;;4947618;28;20050;-70
2022/01/02 00:03:24;;;;;;;9.27;2.08;;;;;;;;;;5005825;28;20054;-65
2022/01/02 00:06:00;;;;;;;9.20;1.98;;;;;;;;;;5011057;28;20062;-64
2022/01/02 00:08:42;;;;;;;10.05;1.92;;;;;;;;;;5011071;28;20054;-69
2022/01/02 00:11:19;;;;;;;5.75;1.80;;;;;;;;;;4977139;28;20062;-65
2022/01/02 00:13:55;;;;;;;4.88;2.20;;;;;;;;;;4976892;28;20053;-67
2022/01/02 00:16:27;;;;;;;4.53;1.80;;;;;;;;;;5011070;28;20057;-65
2022/01/02 00:19:08;;;;;;;8.45;2.17;;;;;;;;;;5011148;28;20057;-64
2022/01/02 00:21:44;;;;;;;5.43;2.03;;;;;;;;;;5010626;28;20061;-65
2022/01/02 00:24:20;;;;;;;6.70;2.10;;;;;;;;;;4994830;28;20073;-65
2022/01/02 00:26:52;;;;;;;7.05;2.30;;;;;;;;;;5010331;28;20053;-65
2022/01/02 00:29:23;;;;;;;5.95;1.98;;;;;;;;;;5010559;28;20045;-67
2022/01/02 00:31:55;;;;;;;6.15;1.70;;;;;;;;;;4990406;28;20430;-65
2022/01/02 00:34:27;;;;;;;7.25;1.80;;;;;;;;;;4971314;28;20054;-67
2022/01/02 00:36:59;;;;;;;4.72;2.30;;;;;;;;;;4971159;28;20055;-65
2022/01/02 00:39:32;;;;;;;6.80;2.30;;;;;;;;;;4971513;28;20119;-65
2022/01/02 00:42:09;;;;;;;7.85;2.17;;;;;;;;;;4971255;28;20051;-65
2022/01/02 00:45:00;;;;;;;7.97;2.30;;;;;;;;;;4885258;29;20055;-65
2022/01/02 00:47:37;;;;;;;12.60;2.58;;;;;;;;;;4932721;29;20060;-66
2022/01/02 00:50:13;;;;;;;7.95;2.10;;;;;;;;;;4917269;29;20055;-65
2022/01/02 00:52:46;;;;;;;11.95;2.58;;;;;;;;;;4955508;28;20063;-64
2022/01/02 00:55:23;;;;;;;12.98;2.63;;;;;;;;;;4951634;29;20055;-65
2022/01/02 00:58:08;;;;;;;8.45;2.47;;;;;;;;;;4932426;29;20075;-64
2022/01/02 01:00:48;;;;;;;8.27;3.05;;;;;;;;;;4932394;29;20158;-63
2022/01/02 01:03:31;;;;;;;7.10;2.72;;;;;;;;;;4932045;29;20047;-64
2022/01/02 01:06:10;;;;;;;11.30;3.15;;;;;;;;;;4912945;29;20055;-64
2022/01/02 01:08:42;;;;;;;;;;;;;;;;;;4892070;29;20044;-64
2022/01/02 01:11:14;;;;;;;9.65;2.67;;;;;;;;;;4829022;29;19935;-65
2022/01/02 01:13:46;;;;;;;11.95;2.72;;;;;;;;;;4875576;29;20064;-65
2022/01/02 01:16:18;;;;;;;9.60;2.78;;;;;;;;;;4875515;29;20064;-65
2022/01/02 01:18:50;;;;;;;7.88;2.20;;;;;;;;;;4893876;29;20417;-65
2022/01/02 01:21:21;;;;;;;7.40;2.85;;;;;;;;;;4878732;29;20056;-64
2022/01/02 01:23:53;;;;;;;8.77;2.20;;;;;;;;;;4855822;29;20418;-69
2022/01/02 01:26:24;;;;;;;6.30;2.30;;;;;;;;;;4857013;29;20057;-64
2022/01/02 01:28:57;;;;;;;8.77;2.53;;;;;;;;;;4819975;29;20061;-65
2022/01/02 01:31:28;;;;;;;6.47;2.40;;;;;;;;;;4819757;29;20057;-64
2022/01/02 01:34:00;;;;;;;12.43;2.53;;;;;;;;;;4806940;29;20066;-70
2022/01/02 01:36:32;;;;;;;9.27;2.60;;;;;;;;;;4803736;29;20058;-65
2022/01/02 01:39:04;;;;;;;7.43;2.80;;;;;;;;;;4739673;29;20063;-64
2022/01/02 01:41:38;;;;;;;10.43;2.85;;;;;;;;;;4796582;29;20054;-64
2022/01/02 01:46:45;;;;;;;11.82;3.17;;;;;;;;;;4789883;29;20210;-67
2022/01/02 01:49:26;;;;;;;12.85;3.65;;;;;;;;;;4861532;29;20057;-64
2022/01/02 01:51:59;;;;;;;8.82;3.15;;;;;;;;;;4856377;29;20050;-64
2022/01/02 01:54:31;;;;;;;10.52;2.65;;;;;;;;;;4856071;29;20450;-64
2022/01/02 01:57:04;;;;;;;8.65;2.15;;;;;;;;;;4841664;29;20062;-64
2022/01/02 01:59:38;;;;;;;6.10;2.42;;;;;;;;;;4874392;29;20766;-64
2022/01/02 02:02:10;;;;;;;5.97;3.13;;;;;;;;;;4869780;29;20127;-64
2022/01/02 02:04:41;;;;;;;;;;;;;;;;;;4874901;29;20668;-67
2022/01/02 02:07:19;;;;;;;5.57;2.70;;;;;;;;;;4841913;29;19924;-65
2022/01/02 02:13:03;;;;;;;14.43;2.70;;;;;;;;;;4837678;29;20066;-64
2022/01/02 02:15:39;;;;;;;9.02;2.13;;;;;;;;;;4870495;29;20430;-64
2022/01/02 02:18:11;;;;;;;8.88;2.40;;;;;;;;;;4873064;29;20056;-64
2022/01/02 02:20:44;;;;;;;5.65;2.30;;;;;;;;;;4856176;29;20061;-64
2022/01/02 02:23:23;;;;;;;9.70;2.60;;;;;;;;;;4855643;29;20066;-64
2022/01/02 02:25:55;;;;;;;6.80;2.30;;;;;;;;;;4853530;29;20062;-65
2022/01/02 02:28:27;;;;;;;;;;;;;;;;;;4856237;29;20054;-65
2022/01/02 02:31:01;;;;;;;9.13;2.10;;;;;;;;;;4855468;29;20335;-66
2022/01/02 02:33:33;;;;;;;8.50;2.13;;;;;;;;;;4837098;29;20050;-71
2022/01/02 02:36:04;;;;;;;5.93;2.50;;;;;;;;;;4858021;29;20053;-64
2022/01/02 02:38:38;;;;;;;9.70;2.75;;;;;;;;;;4877937;29;20057;-65
2022/01/02 02:41:10;;;;;;;6.50;2.63;;;;;;;;;;4828560;29;20056;-64
2022/01/02 02:43:53;;;;;;;6.00;3.13;;;;;;;;;;4859274;29;20080;-65
2022/01/02 02:49:18;;;;;;;10.45;2.55;;;;;;;;;;4831673;29;20059;-64
2022/01/02 02:51:57;;;;;;;10.63;3.15;;;;;;;;;;4847133;29;20058;-65
2022/01/02 02:54:33;;;;;;;6.38;2.78;;;;;;;;;;4822576;29;20061;-68
2022/01/02 02:57:11;;;;;;;9.90;2.80;;;;;;;;;;4859316;29;20102;-65
2022/01/02 02:59:44;;;;;;;9.27;2.30;;;;;;;;;;4840811;29;20077;-64
2022/01/02 03:02:15;;;;;;;9.45;2.30;;;;;;;;;;4858962;29;20057;-66
2022/01/02 03:04:49;;;;;;;10.70;2.70;;;;;;;;;;4867999;29;20060;-66
2022/01/02 03:07:20;;;;;;;6.20;2.50;;;;;;;;;;4825723;29;20054;-65
2022/01/02 03:09:57;;;;;;;6.85;2.95;;;;;;;;;;4808265;29;20090;-65
2022/01/02 03:12:30;;;;;;;;;;;;;;;;;;4841491;29;20534;-65
2022/01/02 03:15:01;;;;;;;8.25;2.78;;;;;;;;;;4859093;29;19947;-67
2022/01/02 03:17:32;;;;;;;5.78;2.33;;;;;;;;;;4858906;29;20510;-64
2022/01/02 03:20:06;;;;;;;10.38;2.72;;;;;;;;;;4858848;29;20508;-64
2022/01/02 03:22:38;;;;;;;7.95;3.63;;;;;;;;;;4856148;29;20525;-67
2022/01/02 03:25:13;;;;;;;8.80;3.00;;;;;;;;;;4840352;29;20057;-64
2022/01/02 03:27:46;;;;;;;7.82;3.50;;;;;;;;;;4858578;29;20050;-64
2022/01/02 03:30:18;;;;;;;9.55;3.38;;;;;;;;;;4827785;29;20399;-64
2022/01/02 03:32:50;;;;;;;10.52;4.32;;;;;;;;;;4872911;29;20057;-68
2022/01/02 03:35:22;;;;;;;10.30;3.78;;;;;;;;;;4877046;29;20049;-64
2022/01/02 03:37:54;;;;;;;11.50;4.07;;;;;;;;;;4877116;29;20057;-64
2022/01/02 03:40:25;;;;;;;13.40;4.18;;;;;;;;;;4876991;29;20110;-66
2022/01/02 03:42:58;;;;;;;8.20;3.13;;;;;;;;;;4877332;29;20080;-64
2022/01/02 03:45:30;;;;;;;8.55;3.47;;;;;;;;;;4889571;29;20068;-65
2022/01/02 03:48:01;;;;;;;12.63;3.03;;;;;;;;;;4914042;29;20503;-64
2022/01/02 03:50:33;;;;;;;8.00;3.75;;;;;;;;;;4914740;29;20063;-69
2022/01/02 03:53:06;;;;;;;10.32;3.50;;;;;;;;;;4889038;29;20052;-64
2022/01/02 03:55:39;;;;;;;9.18;4.30;;;;;;;;;;4895289;29;20136;-70
2022/01/02 03:58:11;;;;;;;7.97;3.60;;;;;;;;;;4883403;29;20065;-68
2022/01/02 04:00:42;;;;;;;12.93;3.72;;;;;;;;;;4876797;29;20072;-65
2022/01/02 04:03:15;;;;;;;7.15;3.33;;;;;;;;;;4895430;29;20055;-65
2022/01/02 04:05:46;;;;;;;6.13;2.45;;;;;;;;;;4864603;29;20418;-65
2022/01/02 04:08:18;;;;;;;8.13;3.00;;;;;;;;;;4858312;29;20066;-64
2022/01/02 04:10:53;;;;;;;11.80;2.78;;;;;;;;;;4873236;29;20060;-65
2022/01/02 04:13:25;;;;;;;6.25;2.90;;;;;;;;;;4873351;29;20053;-64
2022/01/02 04:15:56;;;;;;;8.40;3.10;;;;;;;;;;4887165;29;20061;-65
2022/01/02 04:18:28;;;;;;;8.02;4.30;;;;;;;;;;4897731;29;20052;-65
2022/01/02 04:21:00;;;;;;;6.32;3.40;;;;;;;;;;4932732;29;20630;-64
2022/01/02 04:23:31;;;;;;;8.20;2.78;;;;;;;;;;4917722;29;20064;-65
2022/01/02 04:26:02;;;;;;;9.13;2.97;;;;;;;;;;4933040;29;20056;-65
2022/01/02 04:28:33;;;;;;;6.45;3.20;;;;;;;;;;4930109;29;20064;-65
2022/01/02 04:31:05;;;;;;;9.07;4.35;;;;;;;;;;4904514;29;20061;-69
2022/01/02 04:33:39;;;;;;;9.73;3.25;;;;;;;;;;4876523;29;20080;-64
2022/01/02 04:36:10;;;;;;;8.80;3.60;;;;;;;;;;4876425;29;20418;-65
2022/01/02 04:38:42;;;;;;;7.50;2.60;;;;;;;;;;4891501;29;20056;-64
2022/01/02 04:41:13;;;;;;;;;;;;;;;;;;4912148;29;20054;-65
2022/01/02 04:43:45;;;;;;;5.95;2.80;;;;;;;;;;4912206;29;19923;-64
2022/01/02 04:46:16;;;;;;;9.38;3.00;;;;;;;;;;4951498;28;20207;-65
2022/01/02 04:48:48;;;;;;;;;;;;;;;;;;4952282;29;20062;-64
2022/01/02 04:51:19;;;;;;;5.15;2.38;;;;;;;;;;4936266;29;19945;-68
2022/01/02 04:53:51;;;;;;;7.80;3.47;;;;;;;;;;4952244;29;20534;-67
2022/01/02 04:56:21;;;;;;;9.82;3.38;;;;;;;;;;4921058;29;20060;-65
2022/01/02 04:58:53;;;;;;;6.65;3.00;;;;;;;;;;4892724;29;20051;-64
2022/01/02 05:01:24;;;;;;;6.47;2.67;;;;;;;;;;4932012;29;20071;-64
2022/01/02 05:03:56;;;;;;;8.23;2.97;;;;;;;;;;4931949;29;20051;-65
2022/01/02 05:06:27;;;;;;;12.55;2.47;;;;;;;;;;4920658;29;20429;-66
2022/01/02 05:08:57;;;;;;;7.78;3.15;;;;;;;;;;4913389;29;20056;-66
2022/01/02 05:11:29;;;;;;;8.65;2.85;;;;;;;;;;4913225;29;20071;-65
2022/01/02 05:14:00;;;;;;;5.40;2.40;;;;;;;;;;4881749;29;20413;-70
2022/01/02 05:16:31;;;;;;;;;;;;;;;;;;4919907;29;20085;-65
2022/01/02 05:19:02;;;;;;;9.43;2.88;;;;;;;;;;4921147;29;19930;-65
2022/01/02 05:21:35;;;;;;;6.65;3.40;;;;;;;;;;4891563;29;20069;-64
2022/01/02 05:24:07;;;;;;;10.23;3.25;;;;;;;;;;4875566;29;20053;-65
2022/01/02 05:26:38;;;;;;;6.65;3.28;;;;;;;;;;4874807;29;20134;-64
2022/01/02 05:29:08;;;;;;;7.07;3.72;;;;;;;;;;4875258;29;20052;-64
2022/01/02 05:31:40;;;;;;;6.43;3.22;;;;;;;;;;4890050;29;20444;-64
2022/01/02 05:34:12;;;;;;;7.50;3.50;;;;;;;;;;4904159;29;20055;-65
2022/01/02 05:36:48;;;;;;;7.32;3.50;;;;;;;;;;4915588;29;20180;-64
2022/01/02 05:39:22;;;;;;;6.50;3.03;;;;;;;;;;4878045;29;20425;-65
2022/01/02 05:41:55;;;;;;;8.18;3.00;;;;;;;;;;4856633;29;20391;-64
2022/01/02 05:44:26;;;;;;;6.53;4.03;;;;;;;;;;4893505;29;20057;-66
2022/01/02 05:46:57;;;;;;;10.27;3.78;;;;;;;;;;4894725;29;20060;-64
2022/01/02 05:49:27;;;;;;;10.50;4.35;;;;;;;;;;4950504;29;20059;-67
2022/01/02 05:51:58;;;;;;;12.23;4.45;;;;;;;;;;4931552;29;20062;-65
2022/01/02 05:54:29;;;;;;;6.22;3.67;;;;;;;;;;4919381;29;20052;-64
2022/01/02 05:56:59;;;;;;;6.18;2.90;;;;;;;;;;4893064;29;20045;-64
2022/01/02 05:59:29;;;;;;;7.38;3.47;;;;;;;;;;4901411;29;20056;-64
2022/01/02 06:02:01;;;;;;;8.98;4.47;;;;;;;;;;4893658;29;20467;-64
2022/01/02 06:04:32;;;;;;;10.40;5.40;;;;;;;;;;4874449;29;20057;-65
2022/01/02 06:07:04;;;;;;;14.13;5.90;;;;;;;;;;4874945;29;20566;-69
2022/01/02 06:09:35;;;;;;;11.32;5.88;;;;;;;;;;4872080;29;20094;-64
2022/01/02 06:12:06;;;;;;;8.73;4.75;;;;;;;;;;4859944;29;20077;-64
2022/01/02 06:14:37;;;;;;;11.70;5.60;;;;;;;;;;4874880;29;20061;-64
2022/01/02 06:17:07;;;;;;;10.15;5.28;;;;;;;;;;4831882;29;20403;-65
2022/01/02 06:19:37;;;;;;;10.38;5.30;;;;;;;;;;4859996;29;20174;-65
2022/01/02 06:22:08;;;;;;;9.57;5.30;;;;;;;;;;4869306;29;20457;-65
2022/01/02 06:24:38;;;;;;;13.65;5.55;;;;;;;;;;4897198;29;20057;-65
2022/01/02 06:27:08;;;;;;;11.52;6.28;;;;;;;;;;4850657;29;20136;-66
2022/01/02 06:29:39;;;;;;;15.98;5.95;;;;;;;;;;4895765;29;20053;-65
2022/01/02 06:32:09;;;;;;;14.93;5.22;;;;;;;;;;4905786;29;20516;-64
2022/01/02 06:34:40;;;;;;;9.13;4.97;;;;;;;;;;4925326;29;20078;-68
2022/01/02 06:37:11;;;;;;;8.68;4.78;;;;;;;;;;4897074;29;20063;-64
2022/01/02 06:39:41;;;;;;;12.32;4.95;;;;;;;;;;4896866;29;20501;-64
2022/01/02 06:42:12;;;;;;;7.20;2.95;;;;;;;;;;4897008;29;20433;-65
2022/01/02 06:44:42;;;;;;;7.32;4.18;;;;;;;;;;4897269;29;20064;-65
2022/01/02 06:47:12;;;;;;;9.13;3.95;;;;;;;;;;4897064;29;20418;-66
2022/01/02 06:49:42;;;;;;;8.38;3.80;;;;;;;;;;4905718;29;20059;-69
2022/01/02 06:52:13;;;;;;;6.28;3.63;;;;;;;;;;4925439;29;20455;-65
2022/01/02 06:54:43;;;;;;;7.72;2.95;;;;;;;;;;4933853;29;20058;-65
2022/01/02 06:57:13;;;;;;;11.48;3.20;;;;;;;;;;4949651;29;20047;-65
2022/01/02 06:59:43;;;;;;;9.77;3.67;;;;;;;;;;4934760;29;20051;-65
2022/01/02 07:02:14;;;;;;;11.93;4.95;;;;;;;;;;4915452;29;20128;-67
2022/01/02 07:04:45;;;;;;;7.80;4.40;;;;;;;;;;4896231;29;20075;-65
2022/01/02 07:07:15;;;;;;;7.72;3.65;;;;;;;;;;4921121;29;20056;-64
2022/01/02 07:09:45;;;;;;;9.32;4.13;;;;;;;;;;4919980;29;20619;-67
2022/01/02 07:12:16;;;;;;;12.45;3.30;;;;;;;;;;4953216;29;20418;-65
2022/01/02 07:14:47;;;;;;;9.25;3.65;;;;;;;;;;4963366;28;20491;-66
2022/01/02 07:17:17;;;;;;;7.47;3.50;;;;;;;;;;4953825;29;20055;-76
2022/01/02 07:19:47;;;;;;;6.70;3.05;;;;;;;;;;4937410;29;20431;-65
2022/01/02 07:22:18;;;;;;;6.68;4.05;;;;;;;;;;4953433;28;20087;-65
2022/01/02 07:24:51;;;;;;;10.57;3.72;;;;;;;;;;4953688;29;20204;-65
2022/01/02 07:27:22;;;;;;;11.80;3.75;;;;;;;;;;4953205;29;20063;-67
2022/01/02 07:29:55;;;;;;;7.70;3.40;;;;;;;;;;4924451;29;20051;-65
2022/01/02 07:32:25;;;;;;;6.07;2.80;;;;;;;;;;4914891;29;20428;-65
2022/01/02 07:34:56;;;;;;;11.35;3.08;;;;;;;;;;4914977;29;20055;-65
2022/01/02 07:37:27;;;;;;;11.48;3.83;;;;;;;;;;4915066;29;20080;-65
2022/01/02 07:39:57;;;;;;;8.38;4.40;;;;;;;;;;4943608;28;20058;-65
2022/01/02 07:42:27;;;;;;;5.72;3.30;;;;;;;;;;4953129;29;20059;-65
2022/01/02 07:45:04;;;;;;;6.07;3.65;;;;;;;;;;4952991;28;20534;-65
2022/01/02 07:47:35;;;;;;;5.93;3.40;;;;;;;;;;4953192;29;20066;-65
2022/01/02 07:50:05;;;;;;;7.78;3.38;;;;;;;;;;4961247;28;20484;-65
2022/01/02 07:52:36;;;;;;;5.88;3.83;;;;;;;;;;4968268;28;20055;-67
2022/01/02 07:55:06;;;;;;;13.88;3.33;;;;;;;;;;4952898;29;20059;-67
2022/01/02 07:57:37;;;;;;;8.73;3.10;;;;;;;;;;4952973;29;20408;-65
2022/01/02 08:00:08;;;;;;;7.18;3.80;;;;;;;;;;4933437;29;20056;-64
2022/01/02 08:02:42;;;;;;;6.03;3.20;;;;;;;;;;4936157;29;20051;-66
2022/01/02 08:05:14;;;;;;;6.40;3.08;;;;;;;;;;4936296;29;20062;-67
2022/01/02 08:07:44;;;;;;;8.18;3.80;;;;;;;;;;4952823;29;20055;-64
2022/01/02 08:10:14;;;;;;;6.40;3.20;;;;;;;;;;4952809;29;20058;-65
2022/01/02 08:12:44;;;;;;;4.47;2.90;;;;;;;;;;4894380;29;20136;-64
2022/01/02 08:15:15;;;;;;;9.65;3.00;;;;;;;;;;4917315;29;20063;-65
2022/01/02 08:17:46;;;;;;;7.68;2.83;;;;;;;;;;4944421;29;20071;-65
2022/01/02 08:20:17;;;;;;;12.25;2.80;;;;;;;;;;4913941;29;20424;-67
2022/01/02 08:22:47;;;;;;;5.95;2.75;;;;;;;;;;4895142;29;20052;-64
2022/01/02 08:25:17;;;;;;;6.20;2.95;;;;;;;;;;4895400;29;20453;-65
2022/01/02 08:27:47;;;;;;;7.90;2.70;;;;;;;;;;4885680;29;20060;-65
2022/01/02 08:30:18;;;;;;;6.75;3.10;;;;;;;;;;4857693;29;20057;-66
2022/01/02 08:32:48;;;;;;;7.68;3.45;;;;;;;;;;4877030;29;20052;-64
2022/01/02 08:35:18;;;;;;;6.43;4.43;;;;;;;;;;4876126;29;20053;-65
2022/01/02 08:37:49;;;;;;;8.75;4.07;;;;;;;;;;4898892;29;20075;-66
2022/01/02 08:40:19;;;;;;;8.95;4.57;;;;;;;;;;4932990;29;20067;-67
2022/01/02 08:42:52;;;;;;;5.13;2.95;;;;;;;;;;4948134;28;20050;-65
2022/01/02 08:45:23;;;;;;;6.60;3.30;;;;;;;;;;4932724;29;20415;-65
2022/01/02 08:47:53;;;;;;;6.35;3.92;;;;;;;;;;4970827;28;20055;-65
2022/01/02 08:50:24;;;;;;;5.80;3.53;;;;;;;;;;4951400;28;20039;-65
2022/01/02 08:52:54;;;;;;;7.80;3.80;;;;;;;;;;4951487;28;20066;-65
2022/01/02 08:55:24;;;;;;;5.90;3.30;;;;;;;;;;4935669;28;20499;-66
2022/01/02 08:57:54;;;;;;;6.00;3.50;;;;;;;;;;4951840;28;20066;-69
2022/01/02 09:00:25;;;;;;;5.72;2.60;;;;;;;;;;4942062;28;20471;-68
2022/01/02 09:02:55;;;;;;;6.80;3.38;;;;;;;;;;4970787;28;20055;-66
2022/01/02 09:05:27;;;;;;;7.60;3.50;;;;;;;;;;4954856;28;20063;-65
2022/01/02 09:07:57;;;;;;;6.85;2.42;;;;;;;;;;4961225;28;20059;-65
2022/01/02 09:10:27;;;;;;;7.68;3.50;;;;;;;;;;4970385;28;20645;-66
2022/01/02 09:12:58;;;;;;;6.85;3.35;;;;;;;;;;4951067;29;20059;-65
2022/01/02 09:15:28;;;;;;;9.88;3.88;;;;;;;;;;4951428;29;20070;-65
2022/01/02 09:17:59;;;;;;;10.80;3.90;;;;;;;;;;4951148;29;20059;-68
2022/01/02 09:20:29;;;;;;;6.63;3.85;;;;;;;;;;4913138;29;20048;-66
2022/01/02 09:22:59;;;;;;;6.47;3.70;;;;;;;;;;4894396;29;20048;-66
2022/01/02 09:25:29;;;;;;;5.43;3.03;;;;;;;;;;4853609;29;20049;-65
2022/01/02 09:28:01;;;;;;;7.70;3.50;;;;;;;;;;4875883;29;20052;-65
2022/01/02 09:30:31;;;;;;;6.07;2.88;;;;;;;;;;4875142;29;20549;-65
2022/01/02 09:33:03;;;;;;;7.97;3.22;;;;;;;;;;4909187;29;20064;-65
2022/01/02 09:35:33;;;;;;;7.65;2.97;;;;;;;;;;4931707;29;20063;-64
2022/01/02 09:38:04;;;;;;;10.00;3.20;;;;;;;;;;4960859;28;20061;-64
2022/01/02 09:40:35;;;;;;;8.25;3.30;;;;;;;;;;4952409;28;20068;-65
2022/01/02 09:43:06;;;;;;;5.53;2.92;;;;;;;;;;4919144;29;20144;-67
2022/01/02 09:45:38;;;;;;;4.55;2.78;;;;;;;;;;4950327;28;20043;-65
2022/01/02 09:48:09;;;;;;;6.40;3.40;;;;;;;;;;4951025;29;20505;-65
2022/01/02 09:50:41;;;;;;;13.48;3.70;;;;;;;;;;4925474;29;20495;-65
2022/01/02 09:53:11;;;;;;;;;;;;;;;;;;4970278;28;20047;-65
2022/01/02 09:55:41;;;;;;;8.43;3.35;;;;;;;;;;4986240;28;20311;-65
2022/01/02 09:58:12;;;;;;;7.15;3.65;;;;;;;;;;4941437;28;20507;-66
2022/01/02 10:00:46;;;;;;;7.55;3.67;;;;;;;;;;4920894;29;20052;-65
2022/01/02 10:03:18;;;;;;;5.22;3.42;;;;;;;;;;4928473;29;20512;-65
2022/01/02 10:05:51;;;;;;;;;;;;;;;;;;4912660;29;20056;-65
2022/01/02 10:08:21;;;;;;;6.45;2.20;;;;;;;;;;4931434;29;20550;-64
2022/01/02 10:11:11;;;;;;;5.90;2.53;;;;;;;;;;4931265;29;21058;-64
2022/01/02 10:13:48;;;;;;;4.05;2.22;;;;;;;;;;4912146;29;20412;-67
2022/01/02 10:16:32;;;;;;;4.75;2.85;;;;;;;;;;4912536;29;20060;-64
2022/01/02 10:19:36;;;;;;;5.70;2.60;;;;;;;;;;4912106;29;20052;-64
2022/01/02 10:22:07;;;;;;;3.63;2.30;;;;;;;;;;4893593;29;20056;-65
2022/01/02 10:24:47;;;;;;;8.30;2.80;;;;;;;;;;4877677;29;20064;-66
2022/01/02 10:27:21;;;;;;;6.40;3.25;;;;;;;;;;4892220;29;20105;-64
2022/01/02 10:29:58;;;;;;;7.55;3.00;;;;;;;;;;4891801;29;20552;-66
2022/01/02 10:32:39;;;;;;;4.38;2.72;;;;;;;;;;4874598;29;20060;-66
2022/01/02 10:35:12;;;;;;;4.50;2.90;;;;;;;;;;4874597;29;20057;-66
2022/01/02 10:37:48;;;;;;;5.13;1.65;;;;;;;;;;4878479;29;20410;-64
2022/01/02 10:40:30;;;;;;;5.65;2.10;;;;;;;;;;4862393;29;20052;-66
2022/01/02 10:43:06;;;;;;;6.70;1.73;;;;;;;;;;4853889;29;20052;-65
2022/01/02 10:45:44;;;;;;;3.22;1.73;;;;;;;;;;4856269;29;20065;-66
2022/01/02 10:48:20;;;;;;;2.90;2.00;;;;;;;;;;4856201;29;20103;-63
2022/01/02 10:51:04;;;;;;;2.47;2.08;;;;;;;;;;4856184;29;20065;-66
2022/01/02 10:53:37;;;;;;;4.03;2.30;;;;;;;;;;4841159;29;20054;-64
2022/01/02 10:56:08;;;;;;;3.95;2.00;;;;;;;;;;4866828;29;20064;-72
2022/01/02 10:58:40;;;;;;;2.33;1.38;;;;;;;;;;4897778;29;20445;-66
2022/01/02 11:01:10;;;;;;;3.42;1.80;;;;;;;;;;4915788;29;20060;-71
2022/01/02 11:03:46;;;;;;;4.55;1.80;;;;;;;;;;4915670;29;20067;-66
2022/01/02 11:06:38;;;;;;;6.30;2.10;;;;;;;;;;4877478;29;20053;-66
2022/01/02 11:09:08;;;;;;;4.60;1.70;;;;;;;;;;4927596;29;20051;-67
2022/01/02 11:11:39;;;;;;;2.50;1.75;;;;;;;;;;4915363;29;20052;-67
2022/01/02 11:14:09;;;;;;;4.45;1.92;;;;;;;;;;4953147;29;20047;-63
2022/01/02 11:16:40;;;;;;;2.72;1.83;;;;;;;;;;4934024;29;20067;-61
2022/01/02 11:19:12;;;;;;;6.10;2.03;;;;;;;;;;4934448;29;20063;-66
2022/01/02 11:21:45;;;;;;;3.50;1.70;;;;;;;;;;4933780;29;20055;-68
2022/01/02 11:24:24;;;;;;;4.20;1.85;;;;;;;;;;4934512;29;20063;-69
2022/01/02 11:27:02;;;;;;;2.33;1.80;;;;;;;;;;4933649;29;20082;-67
2022/01/02 11:29:34;;;;;;;4.15;1.63;;;;;;;;;;4934203;29;20424;-67
2022/01/02 11:32:25;;;;;;;5.05;1.83;;;;;;;;;;4966727;28;20059;-68
2022/01/02 11:34:56;;;;;;;2.67;1.77;;;;;;;;;;4972642;28;20066;-67
2022/01/02 11:37:30;;;;;;;6.18;2.13;;;;;;;;;;4972261;28;20086;-68
2022/01/02 11:40:04;;;;;;;2.63;1.70;;;;;;;;;;4972271;28;20058;-65
2022/01/02 11:42:38;;;;;;;7.90;1.50;;;;;;;;;;4972135;28;20423;-68
2022/01/02 11:45:10;;;;;;;4.43;1.85;;;;;;;;;;4953324;28;20527;-64
2022/01/02 11:47:47;;;;;;;3.05;1.65;;;;;;;;;;4972255;28;20538;-67
2022/01/02 11:50:36;;;;;;;4.47;1.65;;;;;;;;;;4952471;29;20462;-67
2022/01/02 11:53:19;;;;;;;6.72;1.77;;;;;;;;;;4921318;29;20070;-69
2022/01/02 11:55:51;;;;;;;2.30;1.70;;;;;;;;;;4956529;28;20059;-71
2022/01/02 11:58:46;;;;;;;4.88;1.98;;;;;;;;;;4939973;28;20098;-69
2022/01/02 12:01:46;;;;;;;3.40;1.85;;;;;;;;;;4956489;28;20050;-66
2022/01/02 12:04:17;;;;;;;4.07;1.60;;;;;;;;;;4970809;28;20054;-66
2022/01/02 12:06:52;;;;;;;2.55;1.88;;;;;;;;;;5010314;28;20136;-70
2022/01/02 12:09:34;;;;;;;6.18;1.92;;;;;;;;;;4994921;28;20057;-70
2022/01/02 12:12:07;;;;;;;7.97;2.17;;;;;;;;;;4962463;28;20061;-67
2022/01/02 12:14:53;;;;;;;4.20;2.08;;;;;;;;;;5011153;28;20085;-65
2022/01/02 12:17:25;;;;;;;3.58;1.60;;;;;;;;;;5010786;28;20053;-69
2022/01/02 12:20:01;;;;;;;4.30;1.85;;;;;;;;;;4991170;28;20065;-65
2022/01/02 12:22:45;;;;;;;4.50;1.70;;;;;;;;;;4988121;28;20058;-67
2022/01/02 12:25:21;;;;;;;2.30;1.55;;;;;;;;;;4991139;28;20054;-67
2022/01/02 12:27:58;;;;;;;3.50;1.50;;;;;;;;;;4990986;28;20065;-72
2022/01/02 12:30:28;;;;;;;4.10;1.50;;;;;;;;;;4975175;28;20399;-64
2022/01/02 12:32:58;;;;;;;8.95;2.08;;;;;;;;;;4991090;28;20054;-67
2022/01/02 12:35:38;;;;;;;5.82;1.77;;;;;;;;;;4974913;28;20042;-67
2022/01/02 12:38:10;;;;;;;3.20;2.13;;;;;;;;;;4975168;28;20392;-67
2022/01/02 12:40:40;;;;;;;2.25;1.55;;;;;;;;;;4990632;28;20561;-70
2022/01/02 12:43:11;;;;;;;2.05;1.10;;;;;;;;;;4990997;28;20057;-69
2022/01/02 12:45:41;;;;;;;5.90;1.77;;;;;;;;;;4942315;28;20526;-67
2022/01/02 12:48:13;;;;;;;2.20;1.63;;;;;;;;;;4990574;28;20058;-69
2022/01/02 12:50:44;;;;;;;4.13;1.55;;;;;;;;;;4951746;28;20059;-70
2022/01/02 12:53:24;;;;;;;4.68;1.65;;;;;;;;;;4951955;28;20070;-67
2022/01/02 12:55:58;;;;;;;2.13;1.48;;;;;;;;;;4971017;28;20074;-68
2022/01/02 12:58:30;;;;;;;2.08;1.55;;;;;;;;;;4971005;28;20066;-68
2022/01/02 13:01:05;;;;;;;1.90;1.55;;;;;;;;;;5021098;28;20061;-64
2022/01/02 13:03:37;;;;;;;8.77;2.55;;;;;;;;;;5029875;28;20057;-67
2022/01/02 13:06:07;;;;;;;5.65;1.65;;;;;;;;;;4973661;28;20050;-68
2022/01/02 13:08:38;;;;;;;1.85;1.00;;;;;;;;;;4990263;28;20410;-68
2022/01/02 13:11:10;;;;;;;2.20;1.40;;;;;;;;;;4970340;28;20057;-70
2022/01/02 13:13:41;;;;;;;2.58;1.70;;;;;;;;;;4970788;28;20070;-68
2022/01/02 13:16:11;;;;;;;2.60;1.40;;;;;;;;;;4951076;29;20066;-69
2022/01/02 13:18:41;;;;;;;2.08;1.52;;;;;;;;;;4951377;28;20063;-67
2022/01/02 13:21:16;;;;;;;2.35;1.38;;;;;;;;;;4951105;29;20066;-68
2022/01/02 13:23:46;;;;;;;2.58;1.50;;;;;;;;;;4951632;29;20070;-67
2022/01/02 13:26:20;;;;;;;1.60;1.10;;;;;;;;;;4935538;29;20452;-68
2022/01/02 13:28:59;;;;;;;3.88;1.40;;;;;;;;;;4925041;29;20051;-67
2022/01/02 13:31:30;;;;;;;3.78;1.40;;;;;;;;;;4947675;28;20055;-66
2022/01/02 13:34:00;;;;;;;2.13;1.30;;;;;;;;;;4977310;28;20081;-68
2022/01/02 13:36:30;;;;;;;2.05;1.27;;;;;;;;;;4989971;28;20062;-70
2022/01/02 13:39:01;;;;;;;4.95;1.60;;;;;;;;;;4989723;28;20050;-67
2022/01/02 13:41:35;;;;;;;;;;;;;;;;;;4957927;28;20058;-70
2022/01/02 13:44:15;;;;;;;4.47;1.38;;;;;;;;;;5002171;28;19921;-66
2022/01/02 13:46:53;;;;;;;4.57;1.80;;;;;;;;;;5009200;28;20526;-69
2022/01/02 13:49:46;;;;;;;5.32;1.50;;;;;;;;;;4975192;28;20046;-68
2022/01/02 13:52:18;;;;;;;1.35;1.00;;;;;;;;;;4970177;28;20055;-67
2022/01/02 13:54:49;;;;;;;3.65;1.20;;;;;;;;;;5005309;28;20050;-66
2022/01/02 13:57:20;;;;;;;5.82;1.40;;;;;;;;;;4989414;28;20053;-66
2022/01/02 13:59:51;;;;;;;3.72;0.93;;;;;;;;;;4989599;28;20446;-66
2022/01/02 14:02:38;;;;;;;2.40;1.60;;;;;;;;;;4989595;28;20042;-67
2022/01/02 14:05:09;;;;;;;13.20;1.60;;;;;;;;;;4989357;28;20061;-67
2022/01/02 14:07:40;;;;;;;1.38;0.95;;;;;;;;;;4941070;28;20066;-66
2022/01/02 14:10:10;;;;;;;2.58;0.90;;;;;;;;;;4989638;28;20075;-66
2022/01/02 14:12:40;;;;;;;2.63;1.40;;;;;;;;;;4969995;28;20047;-68
2022/01/02 14:15:28;;;;;;;3.33;1.85;;;;;;;;;;4970028;28;20559;-68
2022/01/02 14:17:59;;;;;;;1.92;1.50;;;;;;;;;;4970143;28;20059;-65
2022/01/02 14:20:34;;;;;;;2.78;1.10;;;;;;;;;;5008541;28;20437;-68
2022/01/02 14:23:05;;;;;;;2.70;1.52;;;;;;;;;;5009140;28;20057;-67
2022/01/02 14:25:36;;;;;;;1.92;1.30;;;;;;;;;;5009151;28;20077;-68
2022/01/02 14:28:06;;;;;;;1.40;1.30;;;;;;;;;;4989022;28;20514;-67
2022/01/02 14:30:36;;;;;;;8.70;1.05;;;;;;;;;;4972303;28;20450;-66
2022/01/02 14:33:06;;;;;;;2.05;1.02;;;;;;;;;;4993364;28;20046;-70
2022/01/02 14:35:37;;;;;;;1.13;0.93;;;;;;;;;;4978456;28;20047;-67
2022/01/02 14:38:07;;;;;;;6.68;1.23;;;;;;;;;;4974142;28;20069;-67
2022/01/02 14:40:38;;;;;;;1.73;1.23;;;;;;;;;;4988514;28;20054;-70
2022/01/02 14:43:08;;;;;;;1.48;1.20;;;;;;;;;;4973496;28;20059;-68
2022/01/02 14:45:39;;;;;;;1.83;1.05;;;;;;;;;;4973692;28;20051;-69
2022/01/02 14:48:09;;;;;;;;;;;;;;;;;;4957641;28;20050;-63
2022/01/02 14:50:39;;;;;;;1.42;1.00;;;;;;;;;;4929279;29;19922;-69
2022/01/02 14:53:09;;;;;;;1.52;0.77;;;;;;;;;;4954315;29;20051;-67
2022/01/02 14:55:43;;;;;;;2.17;0.80;;;;;;;;;;4953919;29;20454;-66
2022/01/02 14:58:13;;;;;;;3.85;0.80;;;;;;;;;;4924382;29;20059;-67
2022/01/02 15:00:44;;;;;;;5.82;1.20;;;;;;;;;;4934610;29;20048;-66
2022/01/02 15:03:14;;;;;;;2.95;1.08;;;;;;;;;;4896700;29;20064;-66
2022/01/02 15:05:44;;;;;;;1.55;1.17;;;;;;;;;;4868651;29;20466;-67
2022/01/02 15:08:15;;;;;;;2.50;1.27;;;;;;;;;;4919396;29;20051;-70
2022/01/02 15:10:45;;;;;;;1.67;1.42;;;;;;;;;;4934782;29;20064;-67
2022/01/02 15:13:16;;;;;;;2.97;1.48;;;;;;;;;;4915441;29;20441;-67
2022/01/02 15:15:46;;;;;;;3.83;1.40;;;;;;;;;;4915588;29;20071;-69
2022/01/02 15:18:16;;;;;;;1.40;1.30;;;;;;;;;;4899674;29;20056;-66
2022/01/02 15:20:47;;;;;;;3.75;1.40;;;;;;;;;;4890122;29;20049;-66
2022/01/02 15:23:18;;;;;;;3.40;1.30;;;;;;;;;;4896515;29;20065;-68
2022/01/02 15:25:48;;;;;;;2.95;1.52;;;;;;;;;;4895990;29;20064;-67
2022/01/02 15:28:38;;;;;;;;;;;;;;;;;;4896946;29;20869;-69